sensor_id;sensor_type;location;lat;lon;timestamp;P1;durP1;ratioP1;P2;durP2;ratioP2
11943;SDS011;6031;50.220;10.122;2023-09-19T00:01:39;3.43;;;1.00;;
11943;SDS011;6031;50.220;10.122;2023-09-19T00:04:05;1.97;;;1.13;;
11943;SDS011;6031;50.220;10.122;2023-09-19T00:06:38;1.70;;;1.10;;
11943;SDS011;6031;50.220;10.122;2023-09-19T00:09:04;2.10;;;1.30;;
11943;SDS011;6031;50.220;10.122;2023-09-19T00:11:30;2.10;;;0.90;;
11943;SDS011;6031;50.220;10.122;2023-09-19T00:13:56;1.37;;;1.20;;
11943;SDS011;6031;50.220;10.122;2023-09-19T00:16:24;1.23;;;0.80;;
11943;SDS011;6031;50.220;10.122;2023-09-19T00:18:50;3.03;;;1.07;;
11943;SDS011;6031;50.220;10.122;2023-09-19T00:21:16;2.00;;;1.37;;
11943;SDS011;6031;50.220;10.122;2023-09-19T00:23:42;0.83;;;0.83;;
11943;SDS011;6031;50.220;10.122;2023-09-19T00:26:07;3.23;;;1.00;;
11943;SDS011;6031;50.220;10.122;2023-09-19T00:28:33;1.00;;;1.00;;
11943;SDS011;6031;50.220;10.122;2023-09-19T00:30:58;1.10;;;0.87;;
11943;SDS011;6031;50.220;10.122;2023-09-19T00:33:27;2.43;;;1.10;;
11943;SDS011;6031;50.220;10.122;2023-09-19T00:35:54;3.10;;;1.30;;
11943;SDS011;6031;50.220;10.122;2023-09-19T00:38:22;1.90;;;0.90;;
11943;SDS011;6031;50.220;10.122;2023-09-19T00:40:52;2.67;;;1.00;;
11943;SDS011;6031;50.220;10.122;2023-09-19T00:43:18;1.10;;;1.03;;
11943;SDS011;6031;50.220;10.122;2023-09-19T00:45:44;0.87;;;0.87;;
11943;SDS011;6031;50.220;10.122;2023-09-19T00:48:13;1.00;;;1.00;;
11943;SDS011;6031;50.220;10.122;2023-09-19T00:50:41;1.10;;;0.73;;
11943;SDS011;6031;50.220;10.122;2023-09-19T00:53:08;1.53;;;0.80;;
11943;SDS011;6031;50.220;10.122;2023-09-19T00:55:38;1.10;;;0.93;;
11943;SDS011;6031;50.220;10.122;2023-09-19T00:58:04;1.53;;;1.20;;
11943;SDS011;6031;50.220;10.122;2023-09-19T01:00:33;1.27;;;1.00;;
11943;SDS011;6031;50.220;10.122;2023-09-19T01:03:02;1.13;;;1.03;;
11943;SDS011;6031;50.220;10.122;2023-09-19T01:05:28;5.97;;;1.50;;
11943;SDS011;6031;50.220;10.122;2023-09-19T01:07:55;0.77;;;0.77;;
11943;SDS011;6031;50.220;10.122;2023-09-19T01:10:21;1.53;;;1.10;;
11943;SDS011;6031;50.220;10.122;2023-09-19T01:12:49;1.40;;;0.87;;
11943;SDS011;6031;50.220;10.122;2023-09-19T01:21:12;1.40;;;1.23;;
11943;SDS011;6031;50.220;10.122;2023-09-19T01:29:12;5.40;;;0.73;;
11943;SDS011;6031;50.220;10.122;2023-09-19T01:31:57;0.70;;;0.70;;
11943;SDS011;6031;50.220;10.122;2023-09-19T01:34:26;0.87;;;0.83;;
11943;SDS011;6031;50.220;10.122;2023-09-19T01:36:52;1.13;;;1.00;;
11943;SDS011;6031;50.220;10.122;2023-09-19T01:39:17;2.03;;;0.77;;
11943;SDS011;6031;50.220;10.122;2023-09-19T01:47:46;2.63;;;1.10;;
11943;SDS011;6031;50.220;10.122;2023-09-19T01:53:05;4.00;;;0.83;;
11943;SDS011;6031;50.220;10.122;2023-09-19T01:55:37;1.40;;;1.30;;
11943;SDS011;6031;50.220;10.122;2023-09-19T01:58:16;1.20;;;1.10;;
11943;SDS011;6031;50.220;10.122;2023-09-19T02:00:54;1.03;;;0.83;;
11943;SDS011;6031;50.220;10.122;2023-09-19T02:03:23;2.50;;;1.00;;
11943;SDS011;6031;50.220;10.122;2023-09-19T02:05:50;2.07;;;1.33;;
11943;SDS011;6031;50.220;10.122;2023-09-19T02:08:17;4.20;;;1.90;;
11943;SDS011;6031;50.220;10.122;2023-09-19T02:10:44;2.83;;;1.50;;
11943;SDS011;6031;50.220;10.122;2023-09-19T02:13:14;0.93;;;0.93;;
11943;SDS011;6031;50.220;10.122;2023-09-19T02:15:44;1.00;;;1.00;;
11943;SDS011;6031;50.220;10.122;2023-09-19T02:18:11;1.83;;;1.10;;
11943;SDS011;6031;50.220;10.122;2023-09-19T02:20:37;3.07;;;1.03;;
11943;SDS011;6031;50.220;10.122;2023-09-19T02:23:03;2.53;;;1.73;;
11943;SDS011;6031;50.220;10.122;2023-09-19T02:25:29;0.93;;;0.93;;
11943;SDS011;6031;50.220;10.122;2023-09-19T02:27:56;1.73;;;1.37;;
11943;SDS011;6031;50.220;10.122;2023-09-19T02:30:23;0.97;;;0.97;;
11943;SDS011;6031;50.220;10.122;2023-09-19T02:32:50;2.27;;;1.27;;
11943;SDS011;6031;50.220;10.122;2023-09-19T02:35:15;1.43;;;1.10;;
11943;SDS011;6031;50.220;10.122;2023-09-19T02:37:41;1.80;;;1.13;;
11943;SDS011;6031;50.220;10.122;2023-09-19T02:40:07;1.30;;;1.07;;
11943;SDS011;6031;50.220;10.122;2023-09-19T02:42:44;2.00;;;1.10;;
11943;SDS011;6031;50.220;10.122;2023-09-19T02:45:12;3.67;;;1.17;;
11943;SDS011;6031;50.220;10.122;2023-09-19T02:47:37;4.13;;;1.10;;
11943;SDS011;6031;50.220;10.122;2023-09-19T02:50:05;1.87;;;1.07;;
11943;SDS011;6031;50.220;10.122;2023-09-19T02:52:31;2.63;;;1.23;;
11943;SDS011;6031;50.220;10.122;2023-09-19T02:54:56;1.60;;;1.40;;
11943;SDS011;6031;50.220;10.122;2023-09-19T02:57:22;1.03;;;0.93;;
11943;SDS011;6031;50.220;10.122;2023-09-19T02:59:49;1.60;;;1.27;;
11943;SDS011;6031;50.220;10.122;2023-09-19T03:02:15;2.03;;;1.20;;
11943;SDS011;6031;50.220;10.122;2023-09-19T03:04:41;2.43;;;1.40;;
11943;SDS011;6031;50.220;10.122;2023-09-19T03:07:06;1.50;;;1.27;;
11943;SDS011;6031;50.220;10.122;2023-09-19T03:09:32;1.93;;;1.37;;
11943;SDS011;6031;50.220;10.122;2023-09-19T03:11:57;1.57;;;1.13;;
11943;SDS011;6031;50.220;10.122;2023-09-19T03:14:24;2.10;;;1.57;;
11943;SDS011;6031;50.220;10.122;2023-09-19T03:16:50;1.50;;;1.40;;
11943;SDS011;6031;50.220;10.122;2023-09-19T03:19:17;3.23;;;1.97;;
11943;SDS011;6031;50.220;10.122;2023-09-19T03:21:43;1.83;;;1.60;;
11943;SDS011;6031;50.220;10.122;2023-09-19T03:24:08;2.40;;;1.97;;
11943;SDS011;6031;50.220;10.122;2023-09-19T03:26:34;3.27;;;2.07;;
11943;SDS011;6031;50.220;10.122;2023-09-19T03:28:59;2.63;;;2.17;;
11943;SDS011;6031;50.220;10.122;2023-09-19T03:31:31;3.57;;;1.70;;
11943;SDS011;6031;50.220;10.122;2023-09-19T03:33:56;2.17;;;1.97;;
11943;SDS011;6031;50.220;10.122;2023-09-19T03:36:22;2.43;;;1.90;;
11943;SDS011;6031;50.220;10.122;2023-09-19T03:38:48;4.13;;;1.80;;
11943;SDS011;6031;50.220;10.122;2023-09-19T03:41:13;4.33;;;2.13;;
11943;SDS011;6031;50.220;10.122;2023-09-19T03:43:41;3.63;;;2.00;;
11943;SDS011;6031;50.220;10.122;2023-09-19T03:46:07;3.27;;;1.93;;
11943;SDS011;6031;50.220;10.122;2023-09-19T03:48:32;2.23;;;1.93;;
11943;SDS011;6031;50.220;10.122;2023-09-19T03:50:58;2.17;;;1.90;;
11943;SDS011;6031;50.220;10.122;2023-09-19T03:53:24;2.10;;;1.90;;
11943;SDS011;6031;50.220;10.122;2023-09-19T03:55:49;2.00;;;1.90;;
11943;SDS011;6031;50.220;10.122;2023-09-19T03:58:15;3.63;;;2.30;;
11943;SDS011;6031;50.220;10.122;2023-09-19T04:00:40;2.60;;;1.90;;
11943;SDS011;6031;50.220;10.122;2023-09-19T04:03:06;2.57;;;1.90;;
11943;SDS011;6031;50.220;10.122;2023-09-19T04:05:32;3.43;;;2.03;;
11943;SDS011;6031;50.220;10.122;2023-09-19T04:07:58;2.23;;;2.10;;
11943;SDS011;6031;50.220;10.122;2023-09-19T04:10:24;3.00;;;1.77;;
11943;SDS011;6031;50.220;10.122;2023-09-19T04:12:52;3.10;;;2.17;;
11943;SDS011;6031;50.220;10.122;2023-09-19T04:15:19;3.27;;;2.13;;
11943;SDS011;6031;50.220;10.122;2023-09-19T04:17:47;6.80;;;2.37;;
11943;SDS011;6031;50.220;10.122;2023-09-19T04:20:13;2.83;;;2.50;;
11943;SDS011;6031;50.220;10.122;2023-09-19T04:22:38;4.13;;;1.97;;
11943;SDS011;6031;50.220;10.122;2023-09-19T04:25:04;1.77;;;1.67;;
11943;SDS011;6031;50.220;10.122;2023-09-19T04:27:31;4.43;;;2.53;;
11943;SDS011;6031;50.220;10.122;2023-09-19T04:29:57;2.93;;;1.80;;
11943;SDS011;6031;50.220;10.122;2023-09-19T04:32:24;2.30;;;1.83;;
11943;SDS011;6031;50.220;10.122;2023-09-19T04:34:53;5.87;;;2.33;;
11943;SDS011;6031;50.220;10.122;2023-09-19T04:37:18;2.70;;;2.40;;
11943;SDS011;6031;50.220;10.122;2023-09-19T04:39:44;2.97;;;1.90;;
11943;SDS011;6031;50.220;10.122;2023-09-19T04:42:10;7.07;;;2.27;;
11943;SDS011;6031;50.220;10.122;2023-09-19T04:44:39;2.50;;;2.30;;
11943;SDS011;6031;50.220;10.122;2023-09-19T04:47:05;4.80;;;3.60;;
11943;SDS011;6031;50.220;10.122;2023-09-19T04:49:31;5.13;;;2.00;;
11943;SDS011;6031;50.220;10.122;2023-09-19T04:51:56;2.23;;;1.80;;
11943;SDS011;6031;50.220;10.122;2023-09-19T04:54:22;2.50;;;2.00;;
11943;SDS011;6031;50.220;10.122;2023-09-19T04:56:47;2.93;;;2.13;;
11943;SDS011;6031;50.220;10.122;2023-09-19T04:59:13;3.63;;;2.07;;
11943;SDS011;6031;50.220;10.122;2023-09-19T05:01:40;6.77;;;2.40;;
11943;SDS011;6031;50.220;10.122;2023-09-19T05:04:05;2.00;;;1.77;;
11943;SDS011;6031;50.220;10.122;2023-09-19T05:06:31;2.40;;;2.23;;
11943;SDS011;6031;50.220;10.122;2023-09-19T05:08:56;4.10;;;2.33;;
11943;SDS011;6031;50.220;10.122;2023-09-19T05:11:22;2.07;;;1.87;;
11943;SDS011;6031;50.220;10.122;2023-09-19T05:13:48;2.27;;;2.07;;
11943;SDS011;6031;50.220;10.122;2023-09-19T05:16:17;2.57;;;2.13;;
11943;SDS011;6031;50.220;10.122;2023-09-19T05:18:43;3.30;;;2.00;;
11943;SDS011;6031;50.220;10.122;2023-09-19T05:21:08;3.27;;;2.30;;
11943;SDS011;6031;50.220;10.122;2023-09-19T05:23:34;2.73;;;2.30;;
11943;SDS011;6031;50.220;10.122;2023-09-19T05:25:59;3.97;;;2.10;;
11943;SDS011;6031;50.220;10.122;2023-09-19T05:28:25;2.63;;;2.43;;
11943;SDS011;6031;50.220;10.122;2023-09-19T05:30:51;2.60;;;2.00;;
11943;SDS011;6031;50.220;10.122;2023-09-19T05:33:18;3.77;;;2.57;;
11943;SDS011;6031;50.220;10.122;2023-09-19T05:35:43;2.73;;;2.13;;
11943;SDS011;6031;50.220;10.122;2023-09-19T05:38:11;3.87;;;2.30;;
11943;SDS011;6031;50.220;10.122;2023-09-19T05:40:38;2.97;;;2.77;;
11943;SDS011;6031;50.220;10.122;2023-09-19T05:43:07;2.57;;;2.10;;
11943;SDS011;6031;50.220;10.122;2023-09-19T05:45:33;3.37;;;2.13;;
11943;SDS011;6031;50.220;10.122;2023-09-19T05:48:06;3.40;;;1.93;;
11943;SDS011;6031;50.220;10.122;2023-09-19T05:50:38;3.87;;;2.03;;
11943;SDS011;6031;50.220;10.122;2023-09-19T05:53:04;3.00;;;2.27;;
11943;SDS011;6031;50.220;10.122;2023-09-19T05:55:30;4.20;;;2.30;;
11943;SDS011;6031;50.220;10.122;2023-09-19T05:57:56;2.23;;;2.13;;
11943;SDS011;6031;50.220;10.122;2023-09-19T06:00:23;2.90;;;2.13;;
11943;SDS011;6031;50.220;10.122;2023-09-19T06:02:50;2.30;;;2.10;;
11943;SDS011;6031;50.220;10.122;2023-09-19T06:05:20;1.83;;;1.70;;
11943;SDS011;6031;50.220;10.122;2023-09-19T06:07:46;2.20;;;1.70;;
11943;SDS011;6031;50.220;10.122;2023-09-19T06:10:12;2.73;;;1.90;;
11943;SDS011;6031;50.220;10.122;2023-09-19T06:12:39;1.73;;;1.63;;
11943;SDS011;6031;50.220;10.122;2023-09-19T06:15:05;1.73;;;1.60;;
11943;SDS011;6031;50.220;10.122;2023-09-19T06:17:33;5.00;;;2.00;;
11943;SDS011;6031;50.220;10.122;2023-09-19T06:20:02;3.73;;;2.10;;
11943;SDS011;6031;50.220;10.122;2023-09-19T06:22:43;4.60;;;1.53;;
11943;SDS011;6031;50.220;10.122;2023-09-19T06:25:12;1.93;;;1.70;;
11943;SDS011;6031;50.220;10.122;2023-09-19T06:27:51;1.20;;;1.20;;
11943;SDS011;6031;50.220;10.122;2023-09-19T06:30:19;5.07;;;1.53;;
11943;SDS011;6031;50.220;10.122;2023-09-19T06:32:45;2.27;;;1.23;;
11943;SDS011;6031;50.220;10.122;2023-09-19T06:35:11;1.70;;;1.60;;
11943;SDS011;6031;50.220;10.122;2023-09-19T06:37:38;1.80;;;1.70;;
11943;SDS011;6031;50.220;10.122;2023-09-19T06:40:08;2.90;;;1.30;;
11943;SDS011;6031;50.220;10.122;2023-09-19T06:42:41;2.47;;;1.40;;
11943;SDS011;6031;50.220;10.122;2023-09-19T06:45:21;3.37;;;1.37;;
11943;SDS011;6031;50.220;10.122;2023-09-19T06:47:47;3.83;;;1.37;;
11943;SDS011;6031;50.220;10.122;2023-09-19T06:50:14;1.73;;;1.63;;
11943;SDS011;6031;50.220;10.122;2023-09-19T06:52:43;1.97;;;1.27;;
11943;SDS011;6031;50.220;10.122;2023-09-19T06:55:10;2.70;;;1.70;;
11943;SDS011;6031;50.220;10.122;2023-09-19T06:57:38;1.70;;;1.60;;
11943;SDS011;6031;50.220;10.122;2023-09-19T07:00:05;3.47;;;2.23;;
11943;SDS011;6031;50.220;10.122;2023-09-19T07:02:40;5.27;;;1.73;;
11943;SDS011;6031;50.220;10.122;2023-09-19T07:05:09;2.37;;;1.47;;
11943;SDS011;6031;50.220;10.122;2023-09-19T07:07:34;4.87;;;1.80;;
11943;SDS011;6031;50.220;10.122;2023-09-19T07:10:03;1.50;;;1.27;;
11943;SDS011;6031;50.220;10.122;2023-09-19T07:12:36;2.83;;;1.70;;
11943;SDS011;6031;50.220;10.122;2023-09-19T07:15:02;2.23;;;1.50;;
11943;SDS011;6031;50.220;10.122;2023-09-19T07:17:27;2.13;;;1.43;;
11943;SDS011;6031;50.220;10.122;2023-09-19T07:19:54;1.47;;;1.20;;
11943;SDS011;6031;50.220;10.122;2023-09-19T07:22:20;1.70;;;1.60;;
11943;SDS011;6031;50.220;10.122;2023-09-19T07:24:45;2.03;;;1.67;;
11943;SDS011;6031;50.220;10.122;2023-09-19T07:27:11;1.70;;;1.57;;
11943;SDS011;6031;50.220;10.122;2023-09-19T07:29:37;1.53;;;1.43;;
11943;SDS011;6031;50.220;10.122;2023-09-19T07:32:03;3.40;;;1.70;;
11943;SDS011;6031;50.220;10.122;2023-09-19T07:34:29;2.57;;;1.60;;
11943;SDS011;6031;50.220;10.122;2023-09-19T07:36:54;1.70;;;1.10;;
11943;SDS011;6031;50.220;10.122;2023-09-19T07:39:20;4.90;;;2.50;;
11943;SDS011;6031;50.220;10.122;2023-09-19T07:41:45;2.10;;;1.50;;
11943;SDS011;6031;50.220;10.122;2023-09-19T07:44:11;1.70;;;1.60;;
11943;SDS011;6031;50.220;10.122;2023-09-19T07:46:36;4.17;;;1.73;;
11943;SDS011;6031;50.220;10.122;2023-09-19T07:49:03;2.13;;;1.80;;
11943;SDS011;6031;50.220;10.122;2023-09-19T07:51:30;1.60;;;1.50;;
11943;SDS011;6031;50.220;10.122;2023-09-19T07:53:55;2.13;;;1.60;;
11943;SDS011;6031;50.220;10.122;2023-09-19T07:56:21;3.23;;;1.57;;
11943;SDS011;6031;50.220;10.122;2023-09-19T07:58:47;1.30;;;1.20;;
11943;SDS011;6031;50.220;10.122;2023-09-19T08:01:13;2.23;;;1.10;;
11943;SDS011;6031;50.220;10.122;2023-09-19T08:03:39;3.73;;;1.63;;
11943;SDS011;6031;50.220;10.122;2023-09-19T08:06:07;2.77;;;1.40;;
11943;SDS011;6031;50.220;10.122;2023-09-19T08:08:33;2.33;;;1.00;;
11943;SDS011;6031;50.220;10.122;2023-09-19T08:11:02;2.93;;;1.30;;
11943;SDS011;6031;50.220;10.122;2023-09-19T08:13:40;3.73;;;1.47;;
11943;SDS011;6031;50.220;10.122;2023-09-19T08:16:09;1.77;;;1.00;;
11943;SDS011;6031;50.220;10.122;2023-09-19T08:18:35;4.60;;;2.37;;
11943;SDS011;6031;50.220;10.122;2023-09-19T08:21:02;3.37;;;1.47;;
11943;SDS011;6031;50.220;10.122;2023-09-19T08:23:28;2.30;;;1.07;;
11943;SDS011;6031;50.220;10.122;2023-09-19T08:25:57;1.47;;;1.37;;
11943;SDS011;6031;50.220;10.122;2023-09-19T08:28:23;4.07;;;1.90;;
11943;SDS011;6031;50.220;10.122;2023-09-19T08:30:49;1.97;;;1.40;;
11943;SDS011;6031;50.220;10.122;2023-09-19T08:33:15;1.63;;;1.43;;
11943;SDS011;6031;50.220;10.122;2023-09-19T08:35:41;1.90;;;1.40;;
11943;SDS011;6031;50.220;10.122;2023-09-19T08:38:07;1.87;;;1.23;;
11943;SDS011;6031;50.220;10.122;2023-09-19T08:40:36;2.73;;;1.47;;
11943;SDS011;6031;50.220;10.122;2023-09-19T08:43:04;5.00;;;1.40;;
11943;SDS011;6031;50.220;10.122;2023-09-19T08:45:32;2.33;;;1.67;;
11943;SDS011;6031;50.220;10.122;2023-09-19T08:51:25;2.57;;;1.60;;
11943;SDS011;6031;50.220;10.122;2023-09-19T08:53:51;2.40;;;1.37;;
11943;SDS011;6031;50.220;10.122;2023-09-19T08:56:34;1.87;;;1.23;;
11943;SDS011;6031;50.220;10.122;2023-09-19T08:59:04;2.27;;;1.37;;
11943;SDS011;6031;50.220;10.122;2023-09-19T09:01:32;3.00;;;1.47;;
11943;SDS011;6031;50.220;10.122;2023-09-19T09:03:59;1.50;;;1.27;;
11943;SDS011;6031;50.220;10.122;2023-09-19T09:06:26;1.30;;;1.20;;
11943;SDS011;6031;50.220;10.122;2023-09-19T09:08:53;3.43;;;1.30;;
11943;SDS011;6031;50.220;10.122;2023-09-19T09:11:19;5.00;;;1.40;;
11943;SDS011;6031;50.220;10.122;2023-09-19T09:13:45;2.27;;;1.70;;
11943;SDS011;6031;50.220;10.122;2023-09-19T09:16:12;3.60;;;1.43;;
11943;SDS011;6031;50.220;10.122;2023-09-19T09:18:38;2.57;;;1.30;;
11943;SDS011;6031;50.220;10.122;2023-09-19T09:21:05;1.13;;;0.97;;
11943;SDS011;6031;50.220;10.122;2023-09-19T09:23:30;2.77;;;1.37;;
11943;SDS011;6031;50.220;10.122;2023-09-19T09:26:00;1.87;;;1.60;;
11943;SDS011;6031;50.220;10.122;2023-09-19T09:28:30;2.70;;;2.00;;
11943;SDS011;6031;50.220;10.122;2023-09-19T09:30:58;2.40;;;1.27;;
11943;SDS011;6031;50.220;10.122;2023-09-19T09:33:25;2.87;;;1.43;;
11943;SDS011;6031;50.220;10.122;2023-09-19T09:36:00;1.80;;;1.30;;
11943;SDS011;6031;50.220;10.122;2023-09-19T09:38:49;1.13;;;1.07;;
11943;SDS011;6031;50.220;10.122;2023-09-19T09:41:15;2.63;;;1.47;;
11943;SDS011;6031;50.220;10.122;2023-09-19T09:43:52;3.23;;;1.73;;
11943;SDS011;6031;50.220;10.122;2023-09-19T09:46:18;1.70;;;1.40;;
11943;SDS011;6031;50.220;10.122;2023-09-19T09:51:43;3.07;;;1.20;;
11943;SDS011;6031;50.220;10.122;2023-09-19T09:54:22;3.67;;;2.00;;
11943;SDS011;6031;50.220;10.122;2023-09-19T09:56:58;1.70;;;1.40;;
11943;SDS011;6031;50.220;10.122;2023-09-19T10:02:18;1.73;;;1.40;;
11943;SDS011;6031;50.220;10.122;2023-09-19T10:05:14;3.27;;;1.80;;
11943;SDS011;6031;50.220;10.122;2023-09-19T10:07:53;2.40;;;1.30;;
11943;SDS011;6031;50.220;10.122;2023-09-19T10:10:43;2.70;;;1.53;;
11943;SDS011;6031;50.220;10.122;2023-09-19T10:13:18;1.73;;;1.57;;
11943;SDS011;6031;50.220;10.122;2023-09-19T10:15:49;1.30;;;1.20;;
11943;SDS011;6031;50.220;10.122;2023-09-19T10:18:19;3.50;;;1.47;;
11943;SDS011;6031;50.220;10.122;2023-09-19T10:20:47;1.90;;;1.70;;
11943;SDS011;6031;50.220;10.122;2023-09-19T10:23:14;2.53;;;1.60;;
11943;SDS011;6031;50.220;10.122;2023-09-19T10:25:49;2.50;;;2.10;;
11943;SDS011;6031;50.220;10.122;2023-09-19T10:28:16;2.07;;;1.60;;
11943;SDS011;6031;50.220;10.122;2023-09-19T10:30:47;2.40;;;2.00;;
11943;SDS011;6031;50.220;10.122;2023-09-19T10:33:15;1.97;;;1.53;;
11943;SDS011;6031;50.220;10.122;2023-09-19T10:35:42;4.00;;;1.97;;
11943;SDS011;6031;50.220;10.122;2023-09-19T10:38:10;4.93;;;1.93;;
11943;SDS011;6031;50.220;10.122;2023-09-19T10:40:37;3.27;;;2.00;;
11943;SDS011;6031;50.220;10.122;2023-09-19T10:43:11;3.03;;;1.97;;
11943;SDS011;6031;50.220;10.122;2023-09-19T10:45:37;4.00;;;2.20;;
11943;SDS011;6031;50.220;10.122;2023-09-19T10:48:05;2.40;;;1.80;;
11943;SDS011;6031;50.220;10.122;2023-09-19T10:50:41;2.67;;;2.40;;
11943;SDS011;6031;50.220;10.122;2023-09-19T10:53:12;3.83;;;1.90;;
11943;SDS011;6031;50.220;10.122;2023-09-19T10:55:39;2.33;;;1.57;;
11943;SDS011;6031;50.220;10.122;2023-09-19T10:58:05;2.53;;;1.90;;
11943;SDS011;6031;50.220;10.122;2023-09-19T11:00:53;4.73;;;2.07;;
11943;SDS011;6031;50.220;10.122;2023-09-19T11:03:19;4.50;;;1.93;;
11943;SDS011;6031;50.220;10.122;2023-09-19T11:06:02;4.23;;;1.80;;
11943;SDS011;6031;50.220;10.122;2023-09-19T11:08:30;3.73;;;1.93;;
11943;SDS011;6031;50.220;10.122;2023-09-19T11:14:14;4.17;;;2.03;;
11943;SDS011;6031;50.220;10.122;2023-09-19T11:16:40;1.63;;;1.53;;
11943;SDS011;6031;50.220;10.122;2023-09-19T11:30:32;2.57;;;1.37;;
11943;SDS011;6031;50.220;10.122;2023-09-19T11:33:21;1.70;;;1.50;;
11943;SDS011;6031;50.220;10.122;2023-09-19T11:43:45;1.98;;;1.58;;
11943;SDS011;6031;50.220;10.122;2023-09-19T11:46:11;2.03;;;1.50;;
11943;SDS011;6031;50.220;10.122;2023-09-19T11:48:38;2.20;;;1.83;;
11943;SDS011;6031;50.220;10.122;2023-09-19T11:51:13;3.42;;;2.13;;
11943;SDS011;6031;50.220;10.122;2023-09-19T11:53:44;1.63;;;1.40;;
11943;SDS011;6031;50.220;10.122;2023-09-19T11:56:13;1.98;;;1.75;;
11943;SDS011;6031;50.220;10.122;2023-09-19T11:58:43;1.83;;;1.67;;
11943;SDS011;6031;50.220;10.122;2023-09-19T12:01:12;3.47;;;1.55;;
11943;SDS011;6031;50.220;10.122;2023-09-19T12:03:40;3.08;;;2.00;;
11943;SDS011;6031;50.220;10.122;2023-09-19T12:06:12;3.00;;;2.00;;
11943;SDS011;6031;50.220;10.122;2023-09-19T12:08:42;4.85;;;1.75;;
11943;SDS011;6031;50.220;10.122;2023-09-19T12:11:12;2.70;;;1.80;;
11943;SDS011;6031;50.220;10.122;2023-09-19T12:13:44;3.63;;;2.33;;
11943;SDS011;6031;50.220;10.122;2023-09-19T12:16:20;6.43;;;1.88;;
11943;SDS011;6031;50.220;10.122;2023-09-19T12:18:47;3.45;;;2.10;;
11943;SDS011;6031;50.220;10.122;2023-09-19T12:21:31;3.80;;;2.03;;
11943;SDS011;6031;50.220;10.122;2023-09-19T12:26:23;3.90;;;2.15;;
11943;SDS011;6031;50.220;10.122;2023-09-19T12:28:49;6.05;;;2.45;;
11943;SDS011;6031;50.220;10.122;2023-09-19T12:31:17;9.02;;;1.80;;
11943;SDS011;6031;50.220;10.122;2023-09-19T12:33:44;3.00;;;1.98;;
11943;SDS011;6031;50.220;10.122;2023-09-19T12:36:20;3.38;;;2.08;;
11943;SDS011;6031;50.220;10.122;2023-09-19T12:38:50;4.00;;;2.35;;
11943;SDS011;6031;50.220;10.122;2023-09-19T12:41:18;3.80;;;2.03;;
11943;SDS011;6031;50.220;10.122;2023-09-19T12:43:45;3.42;;;1.83;;
11943;SDS011;6031;50.220;10.122;2023-09-19T12:46:11;3.60;;;1.83;;
11943;SDS011;6031;50.220;10.122;2023-09-19T12:48:37;3.88;;;2.30;;
11943;SDS011;6031;50.220;10.122;2023-09-19T12:51:09;4.32;;;1.73;;
11943;SDS011;6031;50.220;10.122;2023-09-19T12:53:41;3.38;;;1.65;;
11943;SDS011;6031;50.220;10.122;2023-09-19T12:56:09;2.88;;;2.22;;
11943;SDS011;6031;50.220;10.122;2023-09-19T12:58:58;3.70;;;1.83;;
11943;SDS011;6031;50.220;10.122;2023-09-19T13:01:28;1.98;;;1.30;;
11943;SDS011;6031;50.220;10.122;2023-09-19T13:04:27;2.72;;;1.98;;
11943;SDS011;6031;50.220;10.122;2023-09-19T13:06:54;2.83;;;2.08;;
11943;SDS011;6031;50.220;10.122;2023-09-19T13:09:25;3.30;;;2.25;;
11943;SDS011;6031;50.220;10.122;2023-09-19T13:12:03;3.35;;;1.67;;
11943;SDS011;6031;50.220;10.122;2023-09-19T13:14:31;3.33;;;1.87;;
11943;SDS011;6031;50.220;10.122;2023-09-19T13:17:03;5.17;;;1.80;;
11943;SDS011;6031;50.220;10.122;2023-09-19T13:19:42;5.47;;;2.20;;
11943;SDS011;6031;50.220;10.122;2023-09-19T13:25:14;2.70;;;1.73;;
11943;SDS011;6031;50.220;10.122;2023-09-19T13:27:50;4.53;;;1.80;;
11943;SDS011;6031;50.220;10.122;2023-09-19T13:30:17;3.63;;;1.80;;
11943;SDS011;6031;50.220;10.122;2023-09-19T13:32:44;1.70;;;1.60;;
11943;SDS011;6031;50.220;10.122;2023-09-19T13:35:12;2.40;;;1.67;;
11943;SDS011;6031;50.220;10.122;2023-09-19T13:37:39;5.53;;;1.93;;
11943;SDS011;6031;50.220;10.122;2023-09-19T13:40:10;4.03;;;2.10;;
11943;SDS011;6031;50.220;10.122;2023-09-19T13:42:36;3.57;;;1.70;;
11943;SDS011;6031;50.220;10.122;2023-09-19T13:45:03;5.27;;;1.70;;
11943;SDS011;6031;50.220;10.122;2023-09-19T13:47:32;4.60;;;1.67;;
11943;SDS011;6031;50.220;10.122;2023-09-19T13:49:59;3.77;;;1.60;;
11943;SDS011;6031;50.220;10.122;2023-09-19T13:52:26;3.65;;;1.52;;
11943;SDS011;6031;50.220;10.122;2023-09-19T13:54:53;2.88;;;1.83;;
11943;SDS011;6031;50.220;10.122;2023-09-19T13:57:21;2.53;;;1.70;;
11943;SDS011;6031;50.220;10.122;2023-09-19T13:59:47;8.07;;;2.25;;
11943;SDS011;6031;50.220;10.122;2023-09-19T14:02:13;2.73;;;1.70;;
11943;SDS011;6031;50.220;10.122;2023-09-19T14:04:39;4.07;;;2.03;;
11943;SDS011;6031;50.220;10.122;2023-09-19T14:07:05;1.80;;;1.30;;
11943;SDS011;6031;50.220;10.122;2023-09-19T14:09:32;3.50;;;1.70;;
11943;SDS011;6031;50.220;10.122;2023-09-19T14:11:58;4.73;;;1.90;;
11943;SDS011;6031;50.220;10.122;2023-09-19T14:14:24;2.80;;;1.80;;
11943;SDS011;6031;50.220;10.122;2023-09-19T14:16:50;3.27;;;1.97;;
11943;SDS011;6031;50.220;10.122;2023-09-19T14:19:17;1.67;;;1.57;;
11943;SDS011;6031;50.220;10.122;2023-09-19T14:21:43;2.70;;;2.17;;
11943;SDS011;6031;50.220;10.122;2023-09-19T14:24:09;5.53;;;2.17;;
11943;SDS011;6031;50.220;10.122;2023-09-19T14:26:35;4.20;;;1.93;;
11943;SDS011;6031;50.220;10.122;2023-09-19T14:29:01;3.77;;;2.13;;
11943;SDS011;6031;50.220;10.122;2023-09-19T14:31:27;2.60;;;1.60;;
11943;SDS011;6031;50.220;10.122;2023-09-19T14:33:55;5.07;;;2.43;;
11943;SDS011;6031;50.220;10.122;2023-09-19T14:36:24;2.30;;;1.80;;
11943;SDS011;6031;50.220;10.122;2023-09-19T14:38:54;2.80;;;1.53;;
11943;SDS011;6031;50.220;10.122;2023-09-19T14:41:20;4.03;;;1.80;;
11943;SDS011;6031;50.220;10.122;2023-09-19T14:43:46;3.07;;;1.93;;
11943;SDS011;6031;50.220;10.122;2023-09-19T14:46:12;1.73;;;1.50;;
11943;SDS011;6031;50.220;10.122;2023-09-19T14:48:39;2.80;;;2.10;;
11943;SDS011;6031;50.220;10.122;2023-09-19T14:51:05;3.23;;;1.90;;
11943;SDS011;6031;50.220;10.122;2023-09-19T14:53:33;3.90;;;2.10;;
11943;SDS011;6031;50.220;10.122;2023-09-19T14:56:02;3.13;;;2.00;;
11943;SDS011;6031;50.220;10.122;2023-09-19T14:58:30;4.60;;;2.07;;
11943;SDS011;6031;50.220;10.122;2023-09-19T15:01:06;6.37;;;2.13;;
11943;SDS011;6031;50.220;10.122;2023-09-19T15:03:35;4.23;;;1.70;;
11943;SDS011;6031;50.220;10.122;2023-09-19T15:06:02;3.47;;;1.63;;
11943;SDS011;6031;50.220;10.122;2023-09-19T15:08:32;2.67;;;2.13;;
11943;SDS011;6031;50.220;10.122;2023-09-19T15:11:03;3.37;;;1.83;;
11943;SDS011;6031;50.220;10.122;2023-09-19T15:13:30;2.47;;;2.00;;
11943;SDS011;6031;50.220;10.122;2023-09-19T15:16:00;3.63;;;1.60;;
11943;SDS011;6031;50.220;10.122;2023-09-19T15:18:27;2.97;;;1.50;;
11943;SDS011;6031;50.220;10.122;2023-09-19T15:20:54;1.73;;;1.30;;
11943;SDS011;6031;50.220;10.122;2023-09-19T15:23:20;3.00;;;1.83;;
11943;SDS011;6031;50.220;10.122;2023-09-19T15:25:49;4.03;;;1.80;;
11943;SDS011;6031;50.220;10.122;2023-09-19T15:28:15;2.63;;;1.33;;
11943;SDS011;6031;50.220;10.122;2023-09-19T15:30:40;3.20;;;1.50;;
11943;SDS011;6031;50.220;10.122;2023-09-19T15:33:06;3.17;;;1.70;;
11943;SDS011;6031;50.220;10.122;2023-09-19T15:35:31;3.23;;;1.67;;
11943;SDS011;6031;50.220;10.122;2023-09-19T15:37:57;3.93;;;1.63;;
11943;SDS011;6031;50.220;10.122;2023-09-19T15:40:25;6.50;;;1.50;;
11943;SDS011;6031;50.220;10.122;2023-09-19T15:42:52;2.30;;;1.43;;
11943;SDS011;6031;50.220;10.122;2023-09-19T15:45:19;2.50;;;1.80;;
11943;SDS011;6031;50.220;10.122;2023-09-19T15:47:44;2.17;;;1.40;;
11943;SDS011;6031;50.220;10.122;2023-09-19T15:50:10;2.77;;;1.50;;
11943;SDS011;6031;50.220;10.122;2023-09-19T15:52:38;2.77;;;1.47;;